createdAt,value
2018-12-01T00:00:24.470Z,27.10
2018-12-01T00:01:02.388Z,27.13
2018-12-01T00:01:40.051Z,27.14
2018-12-01T00:02:18.053Z,27.15
2018-12-01T00:02:55.956Z,27.18
2018-12-01T00:03:33.866Z,27.20
2018-12-01T00:04:11.804Z,27.21
2018-12-01T00:04:49.535Z,27.24
2018-12-01T00:05:27.353Z,27.25
2018-12-01T00:06:05.125Z,27.28
2018-12-01T00:06:42.859Z,27.31
2018-12-01T00:07:20.724Z,27.33
2018-12-01T00:07:58.781Z,27.35
2018-12-01T00:08:36.936Z,27.37
2018-12-01T00:09:14.832Z,27.39
2018-12-01T00:09:52.549Z,27.41
2018-12-01T00:10:30.399Z,27.43
2018-12-01T00:11:08.469Z,27.45
2018-12-01T00:11:46.238Z,27.49
2018-12-01T00:12:24.124Z,27.50
2018-12-01T00:13:01.889Z,27.53
2018-12-01T00:13:39.944Z,27.55
2018-12-01T00:14:17.777Z,27.57
2018-12-01T00:14:55.600Z,27.59
2018-12-01T00:15:33.891Z,27.62
2018-12-01T00:16:11.860Z,27.65
2018-12-01T00:16:49.839Z,27.68
2018-12-01T00:17:27.948Z,27.70
2018-12-01T00:18:05.716Z,27.72
2018-12-01T00:18:43.469Z,27.78
2018-12-01T00:19:21.255Z,27.79
2018-12-01T00:19:59.166Z,27.81
2018-12-01T00:20:38.818Z,27.84
2018-12-01T00:21:17.395Z,27.88
2018-12-01T00:21:55.248Z,27.90
2018-12-01T00:22:33.029Z,27.92
2018-12-01T00:23:12.086Z,27.96
2018-12-01T00:23:49.907Z,27.99
2018-12-01T00:24:27.802Z,28.02
2018-12-01T00:25:05.569Z,28.05
2018-12-01T00:25:43.298Z,28.09
2018-12-01T00:26:21.139Z,28.11
2018-12-01T00:26:59.143Z,28.14
2018-12-01T00:27:37.112Z,28.17
2018-12-01T00:28:14.958Z,28.21
2018-12-01T00:28:52.768Z,28.25
2018-12-01T00:29:30.528Z,28.28
2018-12-01T00:30:18.509Z,28.31
2018-12-01T00:30:56.234Z,28.33
2018-12-01T00:31:33.975Z,28.36
2018-12-01T00:32:12.013Z,28.40
2018-12-01T00:32:50.691Z,28.44
2018-12-01T00:33:28.501Z,28.47
2018-12-01T00:34:06.239Z,28.49
2018-12-01T00:34:44.040Z,28.49
2018-12-01T00:35:21.939Z,28.58
2018-12-01T00:35:59.706Z,28.61
2018-12-01T00:36:37.556Z,28.62
2018-12-01T00:37:15.387Z,28.67
2018-12-01T00:37:53.104Z,28.67
2018-12-01T00:38:31.159Z,28.70
2018-12-01T00:39:10.862Z,28.70
2018-12-01T00:39:48.609Z,28.70
2018-12-01T00:40:26.437Z,28.71
2018-12-01T00:41:04.261Z,28.75
2018-12-01T00:41:42.161Z,28.77
2018-12-01T00:42:19.938Z,28.78
2018-12-01T00:42:58.078Z,28.76
2018-12-01T00:43:36.036Z,28.78
2018-12-01T00:44:14.118Z,28.81
2018-12-01T00:44:52.289Z,28.83
2018-12-01T00:45:30.421Z,28.86
2018-12-01T00:46:08.405Z,28.92
2018-12-01T00:46:46.418Z,28.92
2018-12-01T00:47:24.228Z,28.99
2018-12-01T00:48:01.977Z,28.99
2018-12-01T00:48:39.685Z,29.02
2018-12-01T00:49:17.469Z,29.04
2018-12-01T00:49:55.322Z,29.08
2018-12-01T00:50:33.244Z,29.16
2018-12-01T00:51:11.153Z,29.16
2018-12-01T00:51:48.876Z,29.20
2018-12-01T00:52:26.684Z,29.21
2018-12-01T00:53:04.380Z,29.29
2018-12-01T00:53:42.003Z,29.30
2018-12-01T00:54:19.887Z,29.30
2018-12-01T00:54:57.610Z,29.39
2018-12-01T00:55:35.439Z,29.41
2018-12-01T00:56:13.178Z,29.51
2018-12-01T00:56:51.036Z,29.51
2018-12-01T00:57:28.801Z,29.47
2018-12-01T00:58:06.704Z,29.55
2018-12-01T00:58:44.438Z,29.67
2018-12-01T00:59:22.249Z,29.68
2018-12-01T01:00:00.026Z,29.67
2018-12-01T01:00:37.824Z,29.67
2018-12-01T01:01:15.656Z,29.78
2018-12-01T01:01:53.612Z,29.78
2018-12-01T01:02:37.205Z,29.89
2018-12-01T01:03:15.101Z,29.87
2018-12-01T01:03:52.913Z,29.95
2018-12-01T01:04:30.760Z,29.96
2018-12-01T01:05:08.553Z,29.96
2018-12-01T01:05:46.434Z,30.01
2018-12-01T01:06:24.827Z,30.03
2018-12-01T01:07:02.824Z,29.99
2018-12-01T01:07:40.690Z,30.05
2018-12-01T01:08:18.632Z,30.05
2018-12-01T01:08:56.685Z,30.06
2018-12-01T01:09:34.340Z,30.14
2018-12-01T01:10:13.349Z,30.08
2018-12-01T01:10:51.310Z,30.17
2018-12-01T01:11:29.015Z,30.15
2018-12-01T01:12:06.947Z,30.22
2018-12-01T01:12:45.408Z,30.27
2018-12-01T01:13:23.292Z,30.33
2018-12-01T01:14:01.149Z,30.36
2018-12-01T01:14:39.028Z,30.32
2018-12-01T01:15:16.692Z,30.41
2018-12-01T01:15:54.447Z,30.42
2018-12-01T01:16:32.258Z,30.42
2018-12-01T01:17:10.310Z,30.42
2018-12-01T01:17:48.022Z,30.43
2018-12-01T01:18:25.839Z,30.51
2018-12-01T01:19:03.922Z,30.58
2018-12-01T01:19:41.887Z,30.58
2018-12-01T01:20:20.728Z,30.60
2018-12-01T01:20:58.617Z,30.63
2018-12-01T01:21:36.318Z,30.67
2018-12-01T01:22:14.199Z,30.69
2018-12-01T01:22:52.294Z,30.72
2018-12-01T01:23:30.222Z,30.74
2018-12-01T01:24:08.110Z,30.77
2018-12-01T01:24:46.005Z,30.82
2018-12-01T01:25:23.703Z,30.85
2018-12-01T01:26:01.608Z,30.90
2018-12-01T01:26:39.555Z,30.91
2018-12-01T01:27:17.505Z,30.95
2018-12-01T01:27:55.259Z,30.95
2018-12-01T01:28:33.102Z,30.98
2018-12-01T01:29:10.908Z,31.01
2018-12-01T01:29:48.671Z,31.06
2018-12-01T01:30:26.782Z,31.10
2018-12-01T01:31:04.556Z,31.13
2018-12-01T01:31:42.477Z,31.16
2018-12-01T01:32:20.151Z,31.18
2018-12-01T01:33:31.615Z,31.20
2018-12-01T01:34:09.546Z,31.23
2018-12-01T01:34:47.291Z,31.26
2018-12-01T01:35:25.030Z,31.31
2018-12-01T01:36:02.855Z,31.28
2018-12-01T01:36:40.680Z,31.28
2018-12-01T01:37:18.401Z,31.27
2018-12-01T01:37:56.184Z,31.27
2018-12-01T01:38:33.863Z,31.26
2018-12-01T01:39:12.099Z,31.27
2018-12-01T01:39:50.024Z,31.31
2018-12-01T01:40:27.787Z,31.31
2018-12-01T01:41:08.468Z,31.34
2018-12-01T01:41:46.222Z,31.36
2018-12-01T01:42:23.942Z,31.41
2018-12-01T01:43:01.678Z,31.43
2018-12-01T01:43:39.962Z,31.48
2018-12-01T01:44:17.866Z,31.51
2018-12-01T01:44:55.543Z,31.53
2018-12-01T01:45:33.248Z,31.57
2018-12-01T01:46:10.984Z,31.60
2018-12-01T01:46:48.820Z,31.61
2018-12-01T01:47:26.704Z,31.63
2018-12-01T01:48:04.467Z,31.65
2018-12-01T01:48:42.242Z,31.66
2018-12-01T01:49:20.058Z,31.67
2018-12-01T01:49:57.820Z,31.70
2018-12-01T01:50:35.557Z,31.70
2018-12-01T01:51:15.576Z,31.73
2018-12-01T01:51:53.483Z,31.76
2018-12-01T01:52:31.299Z,31.80
2018-12-01T01:53:09.156Z,31.81
2018-12-01T01:53:46.931Z,31.83
2018-12-01T01:54:24.780Z,31.85
2018-12-01T01:55:02.678Z,31.88
2018-12-01T01:55:40.428Z,31.88
2018-12-01T01:56:18.152Z,31.93
2018-12-01T01:56:55.888Z,31.96
2018-12-01T01:57:33.722Z,31.98
2018-12-01T01:58:11.468Z,31.99
2018-12-01T01:58:49.317Z,32.02
2018-12-01T01:59:27.001Z,32.05
2018-12-01T02:00:04.856Z,32.07
2018-12-01T02:00:42.765Z,32.09
2018-12-01T02:01:20.550Z,32.13
2018-12-01T02:01:58.412Z,32.14
2018-12-01T02:02:36.369Z,32.14
2018-12-01T02:03:17.137Z,32.12
2018-12-01T02:03:54.825Z,32.09
2018-12-01T02:04:32.738Z,32.04
2018-12-01T02:05:10.618Z,32.04
2018-12-01T02:05:48.441Z,32.05
2018-12-01T02:06:26.451Z,32.07
2018-12-01T02:07:04.338Z,32.11
2018-12-01T02:07:42.635Z,32.15
2018-12-01T02:08:20.329Z,32.19
2018-12-01T02:08:58.202Z,32.24
2018-12-01T02:09:36.137Z,32.27
2018-12-01T02:10:14.852Z,32.29
2018-12-01T02:10:52.845Z,32.32
2018-12-01T02:11:30.686Z,32.36
2018-12-01T02:12:08.604Z,32.39
2018-12-01T02:12:46.416Z,32.42
2018-12-01T02:13:24.087Z,32.44
2018-12-01T02:14:01.927Z,32.44
2018-12-01T02:14:39.864Z,32.47
2018-12-01T02:15:18.031Z,32.49
2018-12-01T02:15:55.720Z,32.52
2018-12-01T02:16:33.635Z,32.55
2018-12-01T02:17:11.534Z,32.58
2018-12-01T02:17:49.383Z,32.61
2018-12-01T02:18:27.203Z,32.67
2018-12-01T02:19:04.972Z,32.71
2018-12-01T02:19:42.872Z,32.71
2018-12-01T02:20:21.161Z,32.70
2018-12-01T02:20:58.994Z,32.69
2018-12-01T02:21:36.682Z,32.69
2018-12-01T02:22:14.392Z,32.70
2018-12-01T02:22:52.352Z,32.70
2018-12-01T02:23:30.048Z,32.71
2018-12-01T02:24:08.125Z,32.74
2018-12-01T02:24:46.029Z,32.75
2018-12-01T02:25:23.763Z,32.79
2018-12-01T02:26:01.480Z,32.81
2018-12-01T02:26:39.227Z,32.83
2018-12-01T02:27:16.994Z,32.86
2018-12-01T02:27:54.966Z,32.90
2018-12-01T02:28:32.666Z,32.94
2018-12-01T02:29:10.333Z,32.96
2018-12-01T02:29:48.089Z,32.95
2018-12-01T02:30:25.832Z,32.98
2018-12-01T02:31:03.518Z,33.00
2018-12-01T02:31:41.358Z,33.03
2018-12-01T02:32:19.064Z,33.05
2018-12-01T02:32:56.929Z,33.07
2018-12-01T02:33:34.884Z,33.10
2018-12-01T02:34:12.636Z,33.11
2018-12-01T02:34:50.337Z,33.14
2018-12-01T02:35:31.819Z,33.17
2018-12-01T02:36:09.864Z,33.19
2018-12-01T02:36:47.713Z,33.20
2018-12-01T02:37:25.946Z,33.23
2018-12-01T02:38:04.028Z,33.27
2018-12-01T02:38:42.242Z,33.30
2018-12-01T02:39:20.193Z,33.32
2018-12-01T02:39:58.032Z,33.35
2018-12-01T02:40:36.274Z,33.36
2018-12-01T02:41:14.206Z,33.39
2018-12-01T02:41:52.356Z,33.43
2018-12-01T02:42:30.238Z,33.44
2018-12-01T02:43:08.447Z,33.46
2018-12-01T02:43:46.291Z,33.46
2018-12-01T02:45:08.928Z,33.50
2018-12-01T02:46:20.176Z,33.53
2018-12-01T02:47:16.437Z,33.53
2018-12-01T02:47:54.421Z,33.53
2018-12-01T02:48:32.457Z,33.52
2018-12-01T02:49:10.727Z,33.53
2018-12-01T02:49:48.613Z,33.54
2018-12-01T02:50:32.443Z,33.56
2018-12-01T02:51:10.951Z,33.59
2018-12-01T02:51:48.935Z,33.61
2018-12-01T02:52:26.957Z,33.62
2018-12-01T02:53:05.420Z,33.60
2018-12-01T02:53:43.300Z,33.64
2018-12-01T02:54:21.455Z,33.67
2018-12-01T02:54:59.655Z,33.67
2018-12-01T02:55:37.775Z,33.69
2018-12-01T02:56:15.919Z,33.70
2018-12-01T02:56:53.813Z,33.70
2018-12-01T02:57:31.781Z,33.73
2018-12-01T02:58:10.375Z,33.75
2018-12-01T02:58:48.403Z,33.78
2018-12-01T02:59:26.428Z,33.81
2018-12-01T03:00:04.777Z,33.84
2018-12-01T03:00:43.029Z,33.86
2018-12-01T03:01:21.301Z,33.87
2018-12-01T03:01:59.270Z,33.85
2018-12-01T03:02:37.387Z,33.84
2018-12-01T03:03:15.520Z,33.85
2018-12-01T03:03:53.501Z,33.75
2018-12-01T03:04:31.719Z,33.71
2018-12-01T03:05:11.057Z,33.66
2018-12-01T03:05:49.221Z,33.66
2018-12-01T03:06:27.185Z,33.65
2018-12-01T03:07:05.251Z,33.67
2018-12-01T03:07:43.449Z,33.68
2018-12-01T03:08:21.334Z,33.71
2018-12-01T03:08:59.248Z,33.75
2018-12-01T03:09:37.367Z,33.76
2018-12-01T03:10:19.224Z,33.79
2018-12-01T03:10:57.931Z,33.80
2018-12-01T03:11:35.857Z,33.82
2018-12-01T03:12:13.904Z,33.83
2018-12-01T03:12:52.400Z,33.85
2018-12-01T03:13:30.407Z,33.88
2018-12-01T03:14:08.484Z,33.91
2018-12-01T03:14:46.722Z,33.91
2018-12-01T03:15:24.862Z,33.95
2018-12-01T03:16:02.880Z,33.95
2018-12-01T03:16:40.837Z,33.96
2018-12-01T03:17:18.812Z,33.98
2018-12-01T03:17:56.790Z,33.98
2018-12-01T03:18:34.713Z,33.96
2018-12-01T03:19:12.579Z,33.93
2018-12-01T03:19:50.613Z,33.93
2018-12-01T03:20:28.702Z,33.91
2018-12-01T03:21:06.701Z,33.87
2018-12-01T03:21:44.740Z,33.88
2018-12-01T03:22:22.778Z,33.88
2018-12-01T03:23:01.325Z,33.87
2018-12-01T03:23:39.494Z,33.88
2018-12-01T03:24:17.621Z,33.91
2018-12-01T03:24:55.670Z,33.90
2018-12-01T03:25:33.718Z,33.94
2018-12-01T03:26:11.716Z,33.96
2018-12-01T03:26:49.746Z,33.96
2018-12-01T03:27:36.357Z,33.95
2018-12-01T03:28:14.178Z,33.97
2018-12-01T03:28:52.144Z,33.98
2018-12-01T03:29:30.074Z,34.00
2018-12-01T03:30:13.133Z,34.01
2018-12-01T03:30:51.118Z,34.02
2018-12-01T03:31:29.088Z,34.01
2018-12-01T03:32:07.136Z,34.03
2018-12-01T03:32:45.376Z,34.04
2018-12-01T03:33:23.256Z,34.08
2018-12-01T03:34:01.242Z,34.12
2018-12-01T03:34:39.207Z,34.12
2018-12-01T03:35:17.157Z,34.13
2018-12-01T03:35:55.413Z,34.15
2018-12-01T03:36:33.504Z,34.16
2018-12-01T03:37:11.344Z,34.19
2018-12-01T03:37:50.688Z,34.21
2018-12-01T03:38:28.717Z,34.25
2018-12-01T03:39:07.315Z,34.27
2018-12-01T03:39:45.374Z,34.28
2018-12-01T03:40:23.981Z,34.30
2018-12-01T03:41:02.168Z,34.23
2018-12-01T03:41:40.176Z,34.25
2018-12-01T03:42:18.084Z,34.27
2018-12-01T03:42:56.620Z,34.23
2018-12-01T03:43:34.515Z,34.23
2018-12-01T03:44:12.252Z,34.21
2018-12-01T03:44:50.009Z,34.22
2018-12-01T03:45:28.243Z,34.26
2018-12-01T03:46:06.163Z,34.28
2018-12-01T03:46:44.334Z,34.31
2018-12-01T03:47:22.338Z,34.31
2018-12-01T03:48:00.332Z,34.34
2018-12-01T03:48:38.203Z,34.33
2018-12-01T03:49:16.217Z,34.38
2018-12-01T03:49:54.343Z,34.41
2018-12-01T03:50:32.410Z,34.43
2018-12-01T03:51:10.359Z,34.44
2018-12-01T03:51:48.277Z,34.43
2018-12-01T03:52:26.874Z,34.41
2018-12-01T03:53:04.714Z,34.37
2018-12-01T03:53:42.668Z,34.34
2018-12-01T03:54:20.589Z,34.30
2018-12-01T03:54:58.504Z,34.30
2018-12-01T03:55:36.885Z,34.27
2018-12-01T03:56:14.698Z,34.25
2018-12-01T03:56:52.498Z,34.29
2018-12-01T03:57:30.225Z,34.32
2018-12-01T03:58:08.154Z,34.30
2018-12-01T03:58:47.546Z,34.32
2018-12-01T03:59:25.535Z,34.28
2018-12-01T04:00:03.423Z,34.27
2018-12-01T04:00:41.352Z,34.29
2018-12-01T04:01:19.553Z,34.30
2018-12-01T04:01:57.562Z,34.34
2018-12-01T04:02:36.935Z,34.36
2018-12-01T04:03:14.871Z,34.38
2018-12-01T04:03:53.035Z,34.39
2018-12-01T04:04:31.060Z,34.39
2018-12-01T04:05:09.182Z,34.37
2018-12-01T04:05:47.507Z,34.38
2018-12-01T04:06:25.300Z,34.39
2018-12-01T04:07:03.310Z,34.42
2018-12-01T04:07:41.159Z,34.43
2018-12-01T04:08:19.093Z,34.42
2018-12-01T04:08:57.846Z,34.43
2018-12-01T04:09:35.791Z,34.44
2018-12-01T04:10:13.727Z,34.43
2018-12-01T04:10:51.767Z,34.43
2018-12-01T04:11:29.680Z,34.41
2018-12-01T04:12:07.637Z,34.39
2018-12-01T04:12:45.427Z,34.39
2018-12-01T04:13:23.216Z,34.39
2018-12-01T04:14:01.095Z,34.39
2018-12-01T04:14:39.147Z,34.41
2018-12-01T04:15:16.880Z,34.38
2018-12-01T04:15:54.910Z,34.39
2018-12-01T04:16:32.803Z,34.38
2018-12-01T04:17:10.789Z,34.37
2018-12-01T04:17:48.534Z,34.34
2018-12-01T04:18:27.113Z,34.35
2018-12-01T04:19:05.303Z,34.38
2018-12-01T04:19:43.386Z,34.41
2018-12-01T04:20:26.275Z,34.43
2018-12-01T04:21:06.943Z,34.45
2018-12-01T04:21:47.991Z,34.47
2018-12-01T04:22:25.943Z,34.41
2018-12-01T04:23:05.106Z,34.44
2018-12-01T04:23:43.111Z,34.46
2018-12-01T04:24:21.099Z,34.36
2018-12-01T04:24:58.888Z,34.29
2018-12-01T04:25:36.646Z,34.25
2018-12-01T04:26:14.690Z,34.26
2018-12-01T04:26:52.599Z,34.29
2018-12-01T04:27:30.572Z,34.32
2018-12-01T04:28:08.744Z,34.36
2018-12-01T04:28:46.962Z,34.37
2018-12-01T04:29:24.753Z,34.37
2018-12-01T04:30:04.281Z,34.36
2018-12-01T04:30:42.185Z,34.39
2018-12-01T04:31:20.897Z,34.35
2018-12-01T04:31:58.741Z,34.16
2018-12-01T04:32:36.801Z,34.15
2018-12-01T04:33:14.725Z,34.16
2018-12-01T04:33:52.697Z,34.20
2018-12-01T04:34:30.631Z,34.18
2018-12-01T04:35:08.944Z,34.20
2018-12-01T04:35:46.864Z,34.22
2018-12-01T04:36:25.656Z,34.27
2018-12-01T04:37:03.859Z,34.30
2018-12-01T04:37:42.322Z,34.32
2018-12-01T04:38:20.255Z,34.22
2018-12-01T04:38:58.237Z,34.08
2018-12-01T04:39:37.500Z,33.86
2018-12-01T04:40:16.553Z,33.84
2018-12-01T04:40:54.558Z,33.90
2018-12-01T04:41:32.482Z,33.98
2018-12-01T04:42:10.504Z,34.01
2018-12-01T04:42:48.896Z,34.04
2018-12-01T04:43:26.797Z,34.10
2018-12-01T04:44:04.694Z,34.08
2018-12-01T04:44:42.783Z,34.04
2018-12-01T04:45:21.590Z,34.01
2018-12-01T04:45:59.861Z,33.96
2018-12-01T04:46:38.131Z,33.97
2018-12-01T04:47:16.193Z,33.99
2018-12-01T04:47:54.207Z,34.00
2018-12-01T04:48:32.827Z,34.01
2018-12-01T04:49:10.929Z,33.99
2018-12-01T04:49:48.811Z,33.98
2018-12-01T04:50:27.546Z,33.89
2018-12-01T04:51:05.704Z,33.77
2018-12-01T04:51:43.724Z,33.76
2018-12-01T04:52:22.202Z,33.71
2018-12-01T04:53:00.382Z,33.66
2018-12-01T04:53:39.412Z,33.65
2018-12-01T04:54:17.389Z,33.58
2018-12-01T04:54:56.630Z,33.57
2018-12-01T04:55:34.587Z,33.57
2018-12-01T04:56:12.718Z,33.57
2018-12-01T04:56:50.679Z,33.53
2018-12-01T04:57:28.885Z,33.53
2018-12-01T04:58:07.224Z,33.53
2018-12-01T04:58:45.526Z,33.50
2018-12-01T04:59:23.627Z,33.50
2018-12-01T05:00:01.546Z,33.48
2018-12-01T05:00:39.578Z,33.46
2018-12-01T05:01:17.628Z,33.44
2018-12-01T05:01:55.776Z,33.39
2018-12-01T05:02:33.676Z,33.36
2018-12-01T05:03:11.527Z,33.34
2018-12-01T05:03:50.301Z,33.34
2018-12-01T05:04:28.087Z,33.42
2018-12-01T05:05:06.210Z,33.44
2018-12-01T05:05:44.159Z,33.49
2018-12-01T05:06:22.139Z,33.52
2018-12-01T05:07:00.078Z,33.54
2018-12-01T05:07:38.220Z,33.53
2018-12-01T05:08:16.287Z,33.59
2018-12-01T05:08:54.227Z,33.59
2018-12-01T05:09:32.150Z,33.60
2018-12-01T05:10:20.858Z,33.65
2018-12-01T05:10:58.715Z,33.64
2018-12-01T05:11:36.828Z,33.61
2018-12-01T05:12:14.920Z,33.64
2018-12-01T05:12:52.913Z,33.63
2018-12-01T05:13:30.669Z,33.63
2018-12-01T05:14:08.557Z,33.66
2018-12-01T05:14:46.305Z,33.71
2018-12-01T05:15:24.290Z,33.73
2018-12-01T05:16:02.055Z,33.70
2018-12-01T05:16:39.925Z,33.73
2018-12-01T05:17:17.721Z,33.76
2018-12-01T05:17:55.507Z,33.74
2018-12-01T05:18:33.359Z,33.76
2018-12-01T05:19:11.836Z,33.76
2018-12-01T05:19:49.675Z,33.77
2018-12-01T05:20:27.915Z,33.83
2018-12-01T05:21:05.763Z,33.80
2018-12-01T05:21:43.548Z,33.86
2018-12-01T05:22:21.358Z,33.90
2018-12-01T05:22:59.188Z,33.93
2018-12-01T05:23:36.942Z,33.93
2018-12-01T05:24:14.884Z,33.93
2018-12-01T05:24:52.842Z,33.99
2018-12-01T05:25:30.760Z,33.97
2018-12-01T05:26:08.686Z,33.98
2018-12-01T05:26:46.721Z,34.01
2018-12-01T05:27:24.715Z,34.00
2018-12-01T05:28:02.805Z,34.04
2018-12-01T05:28:40.577Z,34.03
2018-12-01T05:29:18.465Z,34.06
2018-12-01T05:29:56.371Z,34.06
2018-12-01T05:30:34.368Z,34.06
2018-12-01T05:31:12.568Z,34.06
2018-12-01T05:31:50.422Z,34.10
2018-12-01T05:32:28.383Z,34.14
2018-12-01T05:33:06.377Z,34.16
2018-12-01T05:33:44.379Z,34.19
2018-12-01T05:34:22.277Z,34.21
2018-12-01T05:35:00.180Z,34.22
2018-12-01T05:35:37.982Z,34.22
2018-12-01T05:36:15.945Z,34.19
2018-12-01T05:36:53.719Z,34.20
2018-12-01T05:37:31.575Z,34.16
2018-12-01T05:38:09.554Z,34.16
2018-12-01T05:38:47.811Z,34.14
2018-12-01T05:39:25.765Z,34.16
2018-12-01T05:40:03.697Z,34.15
2018-12-01T05:40:44.767Z,34.16
2018-12-01T05:41:22.817Z,34.16
2018-12-01T05:42:00.878Z,34.18
2018-12-01T05:42:38.895Z,34.16
2018-12-01T05:43:16.841Z,34.18
2018-12-01T05:43:54.679Z,34.18
2018-12-01T05:44:32.760Z,34.16
2018-12-01T05:45:24.709Z,34.18
2018-12-01T05:46:02.574Z,34.18
2018-12-01T05:46:40.621Z,34.17
2018-12-01T05:47:18.682Z,34.14
2018-12-01T05:47:57.241Z,34.15
2018-12-01T05:48:35.235Z,34.15
2018-12-01T05:49:13.517Z,34.14
2018-12-01T05:49:51.512Z,34.12
2018-12-01T05:50:29.368Z,34.10
2018-12-01T05:51:07.406Z,34.09
2018-12-01T05:51:45.584Z,34.05
2018-12-01T05:52:23.828Z,34.03
2018-12-01T05:53:02.141Z,34.05
2018-12-01T05:53:40.032Z,34.05
2018-12-01T05:54:17.925Z,34.06
2018-12-01T05:54:55.924Z,34.05
2018-12-01T05:55:33.849Z,34.04
2018-12-01T05:56:11.844Z,34.01
2018-12-01T05:56:49.713Z,33.97
2018-12-01T05:57:27.817Z,33.95
2018-12-01T05:58:05.914Z,33.88
2018-12-01T05:58:43.932Z,33.82
2018-12-01T05:59:21.861Z,33.84
2018-12-01T05:59:59.876Z,33.83
2018-12-01T06:00:38.116Z,33.84
2018-12-01T06:01:16.143Z,33.76
2018-12-01T06:01:54.005Z,33.78
2018-12-01T06:02:31.856Z,33.73
2018-12-01T06:03:10.473Z,33.76
2018-12-01T06:03:48.361Z,33.78
2018-12-01T06:04:27.565Z,33.79
2018-12-01T06:05:05.650Z,33.80
2018-12-01T06:05:43.543Z,33.76
2018-12-01T06:06:21.324Z,33.75
2018-12-01T06:06:59.248Z,33.71
2018-12-01T06:07:37.167Z,33.68
2018-12-01T06:08:15.235Z,33.69
2018-12-01T06:08:53.221Z,33.70
2018-12-01T06:09:31.198Z,33.74
2018-12-01T06:10:25.432Z,33.75
2018-12-01T06:11:03.500Z,33.78
2018-12-01T06:11:41.563Z,33.78
2018-12-01T06:12:19.818Z,33.77
2018-12-01T06:13:02.555Z,33.82
2018-12-01T06:13:40.670Z,33.85
2018-12-01T06:14:18.804Z,33.90
2018-12-01T06:14:56.896Z,33.90
2018-12-01T06:15:35.057Z,33.93
2018-12-01T06:16:13.154Z,33.95
2018-12-01T06:16:51.229Z,33.98
2018-12-01T06:17:29.216Z,34.01
2018-12-01T06:18:07.388Z,34.03
2018-12-01T06:18:45.515Z,34.08
2018-12-01T06:19:23.689Z,34.12
2018-12-01T06:20:01.618Z,34.06
2018-12-01T06:20:39.769Z,34.05
2018-12-01T06:21:17.745Z,34.09
2018-12-01T06:21:55.857Z,34.13
2018-12-01T06:22:33.805Z,34.14
2018-12-01T06:23:11.836Z,34.10
2018-12-01T06:23:49.971Z,34.03
2018-12-01T06:24:28.313Z,33.98
2018-12-01T06:25:06.016Z,33.98
2018-12-01T06:25:44.002Z,33.97
2018-12-01T06:26:22.266Z,33.90
2018-12-01T06:27:00.195Z,33.86
2018-12-01T06:27:38.183Z,33.80
2018-12-01T06:28:16.040Z,33.89
2018-12-01T06:28:53.937Z,33.94
2018-12-01T06:29:31.948Z,33.96
2018-12-01T06:30:12.480Z,33.98
2018-12-01T06:30:50.498Z,34.03
2018-12-01T06:31:28.517Z,34.04
2018-12-01T06:32:06.395Z,34.06
2018-12-01T06:32:44.301Z,34.10
2018-12-01T06:33:22.248Z,34.11
2018-12-01T06:34:00.229Z,34.13
2018-12-01T06:34:38.056Z,34.14
2018-12-01T06:35:15.977Z,34.16
2018-12-01T06:35:53.856Z,34.14
2018-12-01T06:36:31.866Z,34.15
2018-12-01T06:37:10.102Z,34.16
2018-12-01T06:37:48.117Z,34.16
2018-12-01T06:38:26.218Z,34.17
2018-12-01T06:39:04.137Z,34.17
2018-12-01T06:39:42.067Z,34.14
2018-12-01T06:40:21.071Z,34.15
2018-12-01T06:40:59.147Z,34.13
2018-12-01T06:41:37.007Z,34.13
2018-12-01T06:42:14.998Z,34.13
2018-12-01T06:42:53.297Z,34.10
2018-12-01T06:43:31.257Z,34.09
2018-12-01T06:44:09.066Z,34.10
2018-12-01T06:44:47.054Z,34.10
2018-12-01T06:45:24.971Z,34.06
2018-12-01T06:46:02.819Z,34.05
2018-12-01T06:46:40.910Z,34.03
2018-12-01T06:47:18.894Z,34.01
2018-12-01T06:47:56.728Z,34.00
2018-12-01T06:48:34.639Z,33.99
2018-12-01T06:49:12.495Z,33.97
2018-12-01T06:49:50.404Z,33.97
2018-12-01T06:50:30.982Z,33.96
2018-12-01T06:51:09.030Z,33.93
2018-12-01T06:51:47.077Z,33.93
2018-12-01T06:52:24.844Z,33.93
2018-12-01T06:53:02.535Z,33.91
2018-12-01T06:53:40.331Z,33.90
2018-12-01T06:54:18.244Z,33.89
2018-12-01T06:54:55.959Z,33.89
2018-12-01T06:55:33.898Z,33.85
2018-12-01T06:56:11.836Z,33.85
2018-12-01T06:56:49.775Z,33.84
2018-12-01T06:57:27.734Z,33.84
2018-12-01T06:58:05.637Z,33.84
2018-12-01T06:58:43.853Z,33.85
2018-12-01T06:59:21.508Z,33.85
2018-12-01T06:59:59.300Z,33.82
2018-12-01T07:00:37.106Z,33.79
2018-12-01T07:01:15.130Z,33.76
2018-12-01T07:01:53.069Z,33.74
2018-12-01T07:02:31.027Z,33.70
2018-12-01T07:03:09.160Z,33.67
2018-12-01T07:03:47.172Z,33.65
2018-12-01T07:04:25.279Z,33.63
2018-12-01T07:05:03.000Z,33.62
2018-12-01T07:05:41.694Z,33.62
2018-12-01T07:06:19.734Z,33.59
2018-12-01T07:06:57.464Z,33.57
2018-12-01T07:07:35.289Z,33.54
2018-12-01T07:08:13.286Z,33.51
2018-12-01T07:08:51.498Z,33.50
2018-12-01T07:09:29.353Z,33.48
2018-12-01T07:10:08.268Z,33.49
2018-12-01T07:10:46.313Z,33.48
2018-12-01T07:11:24.361Z,33.48
2018-12-01T07:12:02.385Z,33.46
2018-12-01T07:12:40.418Z,33.47
2018-12-01T07:13:18.199Z,33.48
2018-12-01T07:13:56.282Z,33.45
2018-12-01T07:14:34.119Z,33.44
2018-12-01T07:15:16.573Z,33.41
2018-12-01T07:15:54.550Z,33.41
2018-12-01T07:16:32.295Z,33.39
2018-12-01T07:17:10.702Z,33.38
2018-12-01T07:17:48.496Z,33.34
2018-12-01T07:18:59.681Z,33.35
2018-12-01T07:19:38.222Z,33.39
2018-12-01T07:20:16.065Z,33.43
2018-12-01T07:20:54.165Z,33.45
2018-12-01T07:21:31.959Z,33.42
2018-12-01T07:22:09.866Z,33.41
2018-12-01T07:22:47.672Z,33.40
2018-12-01T07:23:25.826Z,33.47
2018-12-01T07:24:03.883Z,33.51
2018-12-01T07:24:41.860Z,33.56
2018-12-01T07:25:19.950Z,33.60
2018-12-01T07:25:57.969Z,33.63
2018-12-01T07:26:35.702Z,33.67
2018-12-01T07:27:13.540Z,33.70
2018-12-01T07:27:51.467Z,33.75
2018-12-01T07:28:29.497Z,33.78
2018-12-01T07:29:07.468Z,33.80
2018-12-01T07:29:46.728Z,33.83
2018-12-01T07:30:24.780Z,33.86
2018-12-01T07:31:02.801Z,33.88
2018-12-01T07:31:40.600Z,33.90
2018-12-01T07:32:18.668Z,33.94
2018-12-01T07:32:56.703Z,33.97
2018-12-01T07:33:34.588Z,34.01
2018-12-01T07:34:12.448Z,34.03
2018-12-01T07:34:50.275Z,34.04
2018-12-01T07:35:28.171Z,34.08
2018-12-01T07:36:06.021Z,34.11
2018-12-01T07:36:43.829Z,34.14
2018-12-01T07:37:21.735Z,34.14
2018-12-01T07:37:59.779Z,34.16
2018-12-01T07:38:37.602Z,34.18
2018-12-01T07:39:15.342Z,34.19
2018-12-01T07:39:53.190Z,34.22
2018-12-01T07:40:31.080Z,34.25
2018-12-01T07:41:08.857Z,34.28
2018-12-01T07:41:46.755Z,34.31
2018-12-01T07:42:24.706Z,34.32
2018-12-01T07:43:02.693Z,34.32
2018-12-01T07:43:40.661Z,34.33
2018-12-01T07:44:18.476Z,34.34
2018-12-01T07:44:56.456Z,34.35
2018-12-01T07:45:34.229Z,34.34
2018-12-01T07:46:12.144Z,34.34
2018-12-01T07:46:50.038Z,34.31
2018-12-01T07:47:28.009Z,34.33
2018-12-01T07:48:05.972Z,34.28
2018-12-01T07:48:43.604Z,34.30
2018-12-01T07:49:21.264Z,34.28
2018-12-01T07:49:59.182Z,34.29
2018-12-01T07:50:36.833Z,34.29
2018-12-01T07:51:14.514Z,34.29
2018-12-01T07:51:52.365Z,34.30
2018-12-01T07:52:30.044Z,34.33
2018-12-01T07:53:08.131Z,34.31
2018-12-01T07:53:45.997Z,34.31
2018-12-01T07:54:23.729Z,34.32
2018-12-01T07:55:01.464Z,34.33
2018-12-01T07:55:39.359Z,34.34
2018-12-01T07:56:17.277Z,34.33
2018-12-01T07:56:55.188Z,34.31
2018-12-01T07:57:32.903Z,34.31
2018-12-01T07:58:10.650Z,34.31
2018-12-01T07:58:48.511Z,34.31
2018-12-01T07:59:26.402Z,34.29
2018-12-01T08:00:04.046Z,34.27
2018-12-01T08:00:41.835Z,34.26
2018-12-01T08:01:19.702Z,34.21
2018-12-01T08:01:57.572Z,34.20
2018-12-01T08:02:35.331Z,34.20
2018-12-01T08:03:13.314Z,34.21
2018-12-01T08:03:51.296Z,34.18
2018-12-01T08:04:29.229Z,34.15
2018-12-01T08:05:07.192Z,34.17
2018-12-01T08:05:44.991Z,34.15
2018-12-01T08:06:22.957Z,34.14
2018-12-01T08:07:00.932Z,34.09
2018-12-01T08:07:38.682Z,34.02
2018-12-01T08:08:16.480Z,34.01
2018-12-01T08:08:54.339Z,33.99
2018-12-01T08:09:32.273Z,33.90
2018-12-01T08:10:21.091Z,33.86
2018-12-01T08:10:58.797Z,33.78
2018-12-01T08:11:36.631Z,33.70
2018-12-01T08:12:14.428Z,33.67
2018-12-01T08:12:52.225Z,33.64
2018-12-01T08:13:29.893Z,33.61
2018-12-01T08:14:07.645Z,33.58